createdAt,value
2019-03-31T00:01:34.389Z,44.53
2019-03-31T00:04:06.387Z,46.20
2019-03-31T00:06:37.443Z,47.25
2019-03-31T00:09:08.575Z,45.48
2019-03-31T00:11:39.678Z,51.65
2019-03-31T00:14:11.744Z,49.30
2019-03-31T00:16:44.641Z,55.43
2019-03-31T00:19:15.751Z,54.90
2019-03-31T00:21:46.773Z,56.15
2019-03-31T00:24:17.818Z,52.73
2019-03-31T00:26:48.825Z,54.05
2019-03-31T00:29:19.873Z,53.58
2019-03-31T00:31:50.785Z,53.42
2019-03-31T00:34:21.824Z,54.85
2019-03-31T00:36:52.836Z,53.42
2019-03-31T00:39:23.755Z,52.23
2019-03-31T00:41:54.652Z,49.25
2019-03-31T00:44:25.596Z,46.95
2019-03-31T00:46:56.524Z,46.65
2019-03-31T00:49:27.646Z,46.60
2019-03-31T00:51:58.634Z,46.95
2019-03-31T00:54:29.665Z,47.55
2019-03-31T00:57:00.665Z,49.20
2019-03-31T00:59:31.697Z,50.52
2019-03-31T01:02:05.357Z,49.27
2019-03-31T01:04:36.458Z,51.68
2019-03-31T01:07:07.850Z,48.80
2019-03-31T01:09:38.932Z,49.60
2019-03-31T01:12:09.935Z,48.40
2019-03-31T01:14:40.910Z,49.48
2019-03-31T01:17:13.419Z,51.70
2019-03-31T01:19:44.542Z,52.83
2019-03-31T01:22:15.454Z,54.95
2019-03-31T01:24:46.476Z,62.00
2019-03-31T01:27:17.617Z,63.70
2019-03-31T01:29:49.023Z,63.13
2019-03-31T01:32:20.379Z,64.00
2019-03-31T01:34:51.387Z,68.40
2019-03-31T01:37:24.005Z,65.97
2019-03-31T01:39:56.774Z,65.20
2019-03-31T01:42:27.789Z,62.23
2019-03-31T01:44:58.791Z,58.78
2019-03-31T01:47:29.853Z,64.77
2019-03-31T01:50:00.894Z,60.23
2019-03-31T01:52:33.427Z,65.00
2019-03-31T01:55:05.726Z,67.97
2019-03-31T01:57:36.610Z,62.35
2019-03-31T02:00:10.564Z,58.33
2019-03-31T02:02:41.553Z,60.67
2019-03-31T02:05:12.710Z,55.92
2019-03-31T02:07:43.757Z,59.38
2019-03-31T02:10:14.767Z,64.55
2019-03-31T02:12:45.671Z,64.60
2019-03-31T02:15:16.655Z,67.05
2019-03-31T02:17:48.454Z,65.05
2019-03-31T02:20:19.536Z,65.78
2019-03-31T02:22:50.532Z,66.82
2019-03-31T02:25:21.537Z,69.65
2019-03-31T02:27:54.127Z,73.30
2019-03-31T02:30:25.292Z,63.35
2019-03-31T02:32:56.205Z,60.40
2019-03-31T02:35:27.140Z,61.25
2019-03-31T02:37:58.080Z,59.50
2019-03-31T02:40:29.107Z,58.00
2019-03-31T02:43:00.028Z,58.58
2019-03-31T02:45:31.202Z,55.20
2019-03-31T02:48:02.105Z,58.92
2019-03-31T02:50:39.026Z,59.50
2019-03-31T02:53:10.101Z,58.05
2019-03-31T02:55:41.102Z,56.55
2019-03-31T02:58:14.316Z,58.65
2019-03-31T03:00:45.503Z,60.38
2019-03-31T03:03:17.235Z,58.78
2019-03-31T03:05:49.804Z,55.90
2019-03-31T03:08:21.903Z,55.23
2019-03-31T03:10:52.868Z,56.95
2019-03-31T03:13:24.830Z,59.38
2019-03-31T03:16:02.980Z,58.13
2019-03-31T03:18:34.756Z,62.38
2019-03-31T03:21:06.018Z,61.40
2019-03-31T03:23:36.962Z,59.65
2019-03-31T03:26:08.006Z,56.80
2019-03-31T03:28:39.176Z,59.08
2019-03-31T03:31:15.201Z,58.70
2019-03-31T03:33:42.908Z,58.85
2019-03-31T03:36:14.023Z,58.90
2019-03-31T03:38:45.030Z,56.98
2019-03-31T03:41:15.978Z,56.13
2019-03-31T03:43:55.672Z,55.73
2019-03-31T03:46:19.688Z,55.78
2019-03-31T03:48:50.746Z,57.78
2019-03-31T03:51:21.681Z,55.52
2019-03-31T03:53:52.630Z,57.23
2019-03-31T03:56:23.560Z,59.90
2019-03-31T03:58:54.473Z,57.70
2019-03-31T04:01:26.830Z,57.88
2019-03-31T04:03:57.798Z,58.58
2019-03-31T04:06:28.772Z,57.17
2019-03-31T04:08:59.755Z,57.53
2019-03-31T04:11:30.735Z,57.88
2019-03-31T04:14:01.680Z,58.02
2019-03-31T04:16:32.592Z,58.33
2019-03-31T04:19:04.409Z,59.08
2019-03-31T04:21:35.438Z,61.08
2019-03-31T04:24:06.428Z,58.33
2019-03-31T04:26:37.656Z,60.20
2019-03-31T04:29:08.766Z,58.80
2019-03-31T04:31:39.875Z,60.10
2019-03-31T04:34:10.794Z,59.20
2019-03-31T04:36:41.750Z,63.10
2019-03-31T04:39:12.676Z,64.95
2019-03-31T04:41:43.658Z,62.27
2019-03-31T04:44:14.616Z,60.15
2019-03-31T04:46:45.590Z,60.50
2019-03-31T04:49:16.508Z,66.87
2019-03-31T04:51:47.468Z,66.90
2019-03-31T04:54:18.393Z,80.07
2019-03-31T04:56:49.426Z,115.42
2019-03-31T04:59:20.350Z,104.45
2019-03-31T05:01:51.419Z,95.07
2019-03-31T05:04:22.336Z,72.70
2019-03-31T05:06:53.290Z,66.22
2019-03-31T05:09:24.231Z,61.40
2019-03-31T05:11:55.192Z,55.83
2019-03-31T05:14:27.184Z,57.83
2019-03-31T05:16:58.351Z,58.05
2019-03-31T05:19:30.193Z,57.67
2019-03-31T05:22:01.669Z,57.67
2019-03-31T05:24:33.731Z,61.45
2019-03-31T05:27:04.697Z,61.58
2019-03-31T05:29:35.618Z,61.37
2019-03-31T05:32:06.598Z,61.30
2019-03-31T05:34:37.663Z,63.80
2019-03-31T05:37:08.602Z,61.92
2019-03-31T05:39:39.592Z,60.23
2019-03-31T05:42:10.543Z,57.08
2019-03-31T05:44:41.524Z,54.55
2019-03-31T05:47:12.512Z,54.55
2019-03-31T05:49:43.462Z,55.73
2019-03-31T05:52:14.505Z,59.05
2019-03-31T05:54:45.523Z,58.50
2019-03-31T05:57:16.469Z,58.80
2019-03-31T05:59:47.378Z,62.23
2019-03-31T06:02:18.327Z,60.78
2019-03-31T06:04:49.240Z,59.73
2019-03-31T06:07:20.212Z,61.92
2019-03-31T06:09:51.105Z,59.23
2019-03-31T06:12:22.063Z,58.65
2019-03-31T06:14:52.965Z,59.58
2019-03-31T06:17:24.065Z,59.15
2019-03-31T06:19:55.765Z,58.70
2019-03-31T06:22:26.867Z,61.92
2019-03-31T06:24:57.782Z,66.80
2019-03-31T06:27:28.936Z,67.45
2019-03-31T06:29:59.855Z,65.42
2019-03-31T06:32:30.874Z,62.85
2019-03-31T06:35:01.802Z,64.37
2019-03-31T06:37:32.843Z,64.95
2019-03-31T06:40:05.063Z,69.25
2019-03-31T06:42:36.024Z,70.17
2019-03-31T06:45:07.218Z,68.02
2019-03-31T06:47:38.181Z,66.33
2019-03-31T06:50:10.747Z,65.25
2019-03-31T06:52:41.694Z,61.15
2019-03-31T06:55:12.686Z,61.02
2019-03-31T06:57:43.717Z,61.50
2019-03-31T07:00:14.726Z,59.55
2019-03-31T07:02:47.267Z,63.00
2019-03-31T07:05:18.220Z,61.63
2019-03-31T07:07:49.405Z,59.42
2019-03-31T07:10:20.436Z,58.95
2019-03-31T07:12:51.477Z,53.55
2019-03-31T07:15:22.502Z,53.40
2019-03-31T07:17:54.058Z,51.00
2019-03-31T07:20:26.500Z,49.88
2019-03-31T07:22:57.687Z,48.38
2019-03-31T07:25:28.824Z,45.00
2019-03-31T07:28:00.040Z,45.83
2019-03-31T07:30:31.114Z,44.42
2019-03-31T07:33:02.483Z,42.10
2019-03-31T07:35:38.850Z,44.10
2019-03-31T07:38:08.802Z,43.87
2019-03-31T07:40:39.766Z,43.38
2019-03-31T07:43:11.299Z,45.65
2019-03-31T07:45:42.628Z,43.73
2019-03-31T07:48:13.710Z,43.63
2019-03-31T07:50:46.363Z,44.35
2019-03-31T07:53:18.872Z,44.25
2019-03-31T07:55:49.851Z,44.00
2019-03-31T07:58:20.825Z,41.05
2019-03-31T08:00:51.812Z,39.15
2019-03-31T08:03:23.047Z,39.48
2019-03-31T08:05:54.043Z,37.53
2019-03-31T08:08:25.088Z,29.37
2019-03-31T08:10:56.008Z,28.23
2019-03-31T08:13:26.937Z,23.75
2019-03-31T08:15:57.893Z,23.02
2019-03-31T08:18:28.854Z,21.15
2019-03-31T08:21:00.772Z,20.23
2019-03-31T08:23:31.936Z,20.77
2019-03-31T08:26:03.331Z,19.15
2019-03-31T08:28:36.188Z,18.48
2019-03-31T08:31:07.197Z,19.32
2019-03-31T08:33:38.235Z,18.77
2019-03-31T08:36:11.895Z,20.35
2019-03-31T08:38:42.926Z,19.48
2019-03-31T08:41:13.870Z,19.32
2019-03-31T08:43:46.398Z,19.05
2019-03-31T08:46:17.562Z,19.52
2019-03-31T08:48:48.545Z,19.62
2019-03-31T08:51:19.453Z,19.20
2019-03-31T08:53:50.463Z,19.05
2019-03-31T08:56:21.448Z,18.20
2019-03-31T08:58:52.458Z,18.77
2019-03-31T09:01:26.424Z,18.42
2019-03-31T09:03:57.365Z,18.48
2019-03-31T09:06:28.350Z,18.77
2019-03-31T09:08:59.416Z,17.45
2019-03-31T09:11:31.886Z,17.13
2019-03-31T09:14:03.038Z,18.42
2019-03-31T09:16:33.970Z,19.62
2019-03-31T09:19:05.981Z,19.82
2019-03-31T09:21:37.837Z,19.95
2019-03-31T09:24:08.936Z,17.62
2019-03-31T09:26:39.972Z,20.45
2019-03-31T09:29:10.976Z,18.27
2019-03-31T09:31:41.900Z,19.23
2019-03-31T09:34:12.915Z,27.65
2019-03-31T09:36:44.016Z,23.15
2019-03-31T09:39:15.040Z,20.92
2019-03-31T09:41:45.961Z,19.95
2019-03-31T09:44:16.908Z,20.27
2019-03-31T09:46:47.837Z,21.07
2019-03-31T09:49:18.772Z,21.05
2019-03-31T09:51:49.700Z,20.65
2019-03-31T09:54:20.694Z,31.97
2019-03-31T09:56:51.729Z,19.07
2019-03-31T09:59:22.614Z,28.10
2019-03-31T10:01:53.555Z,23.77
2019-03-31T10:04:24.467Z,21.20
2019-03-31T10:06:55.437Z,20.50
2019-03-31T10:09:26.473Z,19.12
2019-03-31T10:11:57.460Z,18.25
2019-03-31T10:14:28.702Z,19.77
2019-03-31T10:16:59.599Z,23.30
2019-03-31T10:19:30.613Z,25.97
2019-03-31T10:22:02.446Z,22.55
2019-03-31T10:24:33.605Z,30.65
2019-03-31T10:27:04.544Z,23.50
2019-03-31T10:29:35.540Z,19.00
2019-03-31T10:32:06.518Z,18.20
2019-03-31T10:34:37.461Z,21.97
2019-03-31T10:37:08.352Z,18.42
2019-03-31T10:39:39.329Z,22.93
2019-03-31T10:42:10.022Z,19.05
2019-03-31T10:44:41.088Z,19.37
2019-03-31T10:47:12.075Z,18.45
2019-03-31T10:49:43.039Z,18.62
2019-03-31T10:52:13.979Z,58.85
2019-03-31T10:54:44.959Z,18.50
2019-03-31T10:57:16.042Z,18.70
2019-03-31T10:59:48.124Z,18.98
2019-03-31T11:02:19.170Z,53.28
2019-03-31T11:04:50.276Z,23.47
2019-03-31T11:07:21.194Z,29.90
2019-03-31T11:09:52.128Z,18.57
2019-03-31T11:12:23.125Z,22.13
2019-03-31T11:14:54.062Z,18.52
2019-03-31T11:17:25.277Z,16.07
2019-03-31T11:19:56.441Z,19.87
2019-03-31T11:22:41.834Z,14.53
2019-03-31T11:25:21.091Z,15.03
2019-03-31T11:27:47.612Z,13.45
2019-03-31T11:30:18.702Z,14.05
2019-03-31T11:32:49.751Z,14.05
2019-03-31T11:35:20.887Z,14.83
2019-03-31T11:37:51.876Z,13.55
2019-03-31T11:40:22.947Z,14.05
2019-03-31T11:42:55.739Z,14.15
2019-03-31T11:45:26.708Z,13.80
2019-03-31T11:47:57.631Z,13.00
2019-03-31T11:50:28.630Z,12.68
2019-03-31T11:52:59.750Z,57.93
2019-03-31T11:55:30.895Z,12.55
2019-03-31T11:58:01.884Z,12.68
2019-03-31T12:00:34.468Z,12.73
2019-03-31T12:03:05.487Z,12.63
2019-03-31T12:05:36.634Z,12.63
2019-03-31T12:08:07.693Z,12.45
2019-03-31T12:10:38.712Z,12.68
2019-03-31T12:13:09.785Z,12.70
2019-03-31T12:15:40.846Z,12.05
2019-03-31T12:18:11.829Z,11.95
2019-03-31T12:20:42.796Z,13.15
2019-03-31T12:23:14.627Z,12.90
2019-03-31T12:25:46.808Z,13.90
2019-03-31T12:28:17.820Z,14.20
2019-03-31T12:30:48.778Z,13.58
2019-03-31T12:33:19.690Z,13.78
2019-03-31T12:35:51.716Z,13.53
2019-03-31T12:38:23.754Z,13.32
2019-03-31T12:40:54.885Z,13.05
2019-03-31T12:43:25.827Z,14.00
2019-03-31T12:45:57.080Z,14.78
2019-03-31T12:48:31.457Z,13.80
2019-03-31T12:51:00.952Z,14.40
2019-03-31T12:53:31.968Z,14.80
2019-03-31T12:56:03.022Z,14.33
2019-03-31T12:58:33.996Z,13.30
2019-03-31T13:01:04.940Z,13.65
2019-03-31T13:03:35.890Z,14.07
2019-03-31T13:06:06.975Z,13.83
2019-03-31T13:08:37.900Z,15.05
2019-03-31T13:11:13.904Z,15.23
2019-03-31T13:13:45.603Z,14.47
2019-03-31T13:16:16.637Z,14.70
2019-03-31T13:18:47.544Z,14.98
2019-03-31T13:21:18.520Z,15.95
2019-03-31T13:23:52.022Z,15.70
2019-03-31T13:26:24.728Z,15.40
2019-03-31T13:28:55.700Z,16.23
2019-03-31T13:31:28.563Z,16.30
2019-03-31T13:33:59.606Z,16.45
2019-03-31T13:36:30.616Z,16.37
2019-03-31T13:39:06.676Z,15.03
2019-03-31T13:41:42.429Z,15.48
2019-03-31T13:44:13.450Z,15.78
2019-03-31T13:46:44.579Z,14.60
2019-03-31T13:49:17.145Z,15.45
2019-03-31T13:51:52.024Z,16.17
2019-03-31T13:54:23.265Z,14.90
2019-03-31T13:56:56.447Z,14.55
2019-03-31T13:59:27.841Z,14.13
2019-03-31T14:02:00.402Z,15.48
2019-03-31T14:04:35.309Z,15.93
2019-03-31T14:07:05.499Z,15.13
2019-03-31T14:09:39.717Z,15.48
2019-03-31T14:12:10.692Z,14.03
2019-03-31T14:14:41.710Z,14.68
2019-03-31T14:17:12.917Z,16.73
2019-03-31T14:19:44.001Z,15.50
2019-03-31T14:22:14.937Z,15.53
2019-03-31T14:24:46.885Z,19.62
2019-03-31T14:27:17.979Z,15.30
2019-03-31T14:29:48.930Z,15.38
2019-03-31T14:32:20.209Z,14.75
2019-03-31T14:34:51.128Z,15.28
2019-03-31T14:37:22.154Z,15.53
2019-03-31T14:39:53.122Z,14.43
2019-03-31T14:42:24.155Z,14.00
2019-03-31T14:44:55.130Z,14.30
2019-03-31T14:47:26.285Z,13.70
2019-03-31T14:49:57.189Z,14.65
2019-03-31T14:52:29.669Z,13.68
2019-03-31T14:55:00.763Z,14.30
2019-03-31T14:57:32.846Z,14.25
2019-03-31T15:00:14.527Z,14.10
2019-03-31T15:02:40.498Z,15.03
2019-03-31T15:05:11.460Z,14.30
2019-03-31T15:07:42.443Z,13.50
2019-03-31T15:10:13.375Z,13.22
2019-03-31T15:12:46.119Z,13.70
2019-03-31T15:15:17.193Z,14.10
2019-03-31T15:17:48.235Z,13.25
2019-03-31T15:20:19.251Z,13.43
2019-03-31T15:22:51.560Z,14.53
2019-03-31T15:25:23.485Z,15.98
2019-03-31T15:27:54.543Z,15.75
2019-03-31T15:30:25.572Z,15.15
2019-03-31T15:32:56.661Z,15.10
2019-03-31T15:35:27.752Z,16.60
2019-03-31T15:37:58.822Z,16.35
2019-03-31T15:40:29.816Z,17.02
2019-03-31T15:43:00.825Z,18.02
2019-03-31T15:45:31.771Z,19.87
2019-03-31T15:48:02.780Z,18.05
2019-03-31T15:50:33.696Z,18.70
2019-03-31T15:53:04.777Z,17.80
2019-03-31T15:55:35.684Z,17.65
2019-03-31T15:58:07.545Z,18.32
2019-03-31T16:00:38.574Z,57.27
2019-03-31T16:03:09.744Z,356.52
2019-03-31T16:05:40.748Z,480.27
2019-03-31T16:08:11.848Z,158.05
2019-03-31T16:10:42.769Z,403.05
2019-03-31T16:13:13.814Z,107.78
2019-03-31T16:15:46.613Z,357.67
2019-03-31T16:18:17.712Z,54.33
2019-03-31T16:20:48.681Z,29.10
2019-03-31T16:23:21.527Z,26.83
2019-03-31T16:26:05.605Z,25.08
2019-03-31T16:28:36.609Z,22.73
2019-03-31T16:31:07.634Z,21.85
2019-03-31T16:33:38.593Z,21.30
2019-03-31T16:36:11.876Z,20.17
2019-03-31T16:38:42.898Z,21.95
2019-03-31T16:41:13.923Z,21.70
2019-03-31T16:43:44.863Z,21.68
2019-03-31T16:46:15.894Z,19.62
2019-03-31T16:48:46.919Z,21.30
2019-03-31T16:51:18.001Z,21.25
2019-03-31T16:53:49.014Z,21.95
2019-03-31T16:56:20.032Z,21.82
2019-03-31T16:58:50.977Z,21.27
2019-03-31T17:01:21.995Z,22.22
2019-03-31T17:03:53.079Z,21.93
2019-03-31T17:06:24.996Z,22.52
2019-03-31T17:08:56.085Z,23.22
2019-03-31T17:11:27.067Z,23.73
2019-03-31T17:13:58.049Z,26.33
2019-03-31T17:16:29.123Z,23.30
2019-03-31T17:19:00.176Z,23.92
2019-03-31T17:21:31.107Z,23.80
2019-03-31T17:24:02.073Z,22.35
2019-03-31T17:26:34.037Z,22.45
2019-03-31T17:29:07.722Z,24.80
2019-03-31T17:31:40.350Z,29.03
2019-03-31T17:34:13.279Z,26.67
2019-03-31T17:36:46.014Z,24.80
2019-03-31T17:39:24.771Z,23.85
2019-03-31T17:41:54.280Z,22.75
2019-03-31T17:46:56.984Z,22.40
2019-03-31T17:49:28.067Z,23.20
2019-03-31T17:52:02.873Z,23.25
2019-03-31T17:54:41.266Z,22.70
2019-03-31T17:57:12.190Z,21.97
2019-03-31T17:59:43.233Z,22.32
2019-03-31T18:02:16.948Z,21.77
2019-03-31T18:04:47.939Z,21.40
2019-03-31T18:07:18.851Z,21.12
2019-03-31T18:09:49.901Z,21.02
2019-03-31T18:12:20.839Z,19.52
2019-03-31T18:14:51.919Z,22.90
2019-03-31T18:17:22.870Z,23.07
2019-03-31T18:19:53.954Z,20.60
2019-03-31T18:22:25.021Z,20.02
2019-03-31T18:24:55.958Z,20.35
2019-03-31T18:27:27.894Z,22.32
2019-03-31T18:29:58.935Z,22.22
2019-03-31T18:32:30.289Z,22.17
2019-03-31T18:35:01.344Z,19.42
2019-03-31T18:37:34.047Z,18.40
2019-03-31T18:40:07.574Z,19.48
2019-03-31T18:45:08.881Z,18.35
2019-03-31T18:47:39.861Z,18.73
2019-03-31T18:50:10.880Z,18.35
2019-03-31T18:52:41.882Z,18.80
2019-03-31T18:55:20.420Z,18.45
2019-03-31T18:58:06.417Z,17.95
2019-03-31T19:00:39.056Z,18.85
2019-03-31T19:03:17.757Z,19.40
2019-03-31T19:06:06.555Z,22.10
2019-03-31T19:08:46.545Z,19.85
2019-03-31T19:11:24.860Z,20.88
2019-03-31T19:14:13.838Z,20.97
2019-03-31T19:17:02.358Z,22.40
2019-03-31T19:19:44.137Z,23.02
2019-03-31T19:22:25.605Z,22.55
2019-03-31T19:24:58.230Z,22.55
2019-03-31T19:27:35.804Z,23.15
2019-03-31T19:30:08.509Z,21.40
2019-03-31T19:33:00.840Z,22.73
2019-03-31T19:35:49.903Z,26.20
2019-03-31T19:38:39.090Z,24.07
2019-03-31T19:41:17.620Z,22.48
2019-03-31T19:44:07.739Z,22.87
2019-03-31T19:46:40.380Z,24.37
2019-03-31T19:49:13.416Z,25.17
2019-03-31T19:51:46.089Z,23.47
2019-03-31T19:54:21.934Z,23.37
2019-03-31T19:56:59.330Z,24.00
2019-03-31T19:59:43.699Z,23.80
2019-03-31T20:02:19.430Z,24.23
2019-03-31T20:05:07.045Z,24.00
2019-03-31T20:07:40.013Z,25.08
2019-03-31T20:10:29.945Z,28.90
2019-03-31T20:13:19.062Z,24.40
2019-03-31T20:16:08.680Z,23.85
2019-03-31T20:18:44.161Z,30.15
2019-03-31T20:21:31.041Z,28.70
2019-03-31T20:24:08.063Z,26.65
2019-03-31T20:26:55.849Z,26.07
2019-03-31T20:29:32.988Z,26.45
2019-03-31T20:32:06.119Z,36.63
2019-03-31T20:34:42.194Z,30.40
2019-03-31T20:37:16.627Z,27.97
2019-03-31T20:40:11.459Z,26.55
2019-03-31T20:42:57.527Z,27.62
2019-03-31T20:45:34.071Z,25.55
2019-03-31T20:48:05.222Z,26.90
2019-03-31T20:50:38.152Z,25.97
2019-03-31T20:53:17.969Z,23.62
2019-03-31T20:55:51.584Z,23.40
2019-03-31T20:58:22.700Z,23.20
2019-03-31T21:00:55.633Z,23.87
2019-03-31T21:03:28.524Z,24.00
2019-03-31T21:06:02.801Z,23.75
2019-03-31T21:08:36.355Z,23.47
2019-03-31T21:11:14.677Z,27.17
2019-03-31T21:13:47.370Z,24.82
2019-03-31T21:16:19.074Z,24.52
2019-03-31T21:18:53.074Z,23.70
2019-03-31T21:21:27.240Z,25.15
2019-03-31T21:23:59.952Z,25.52
2019-03-31T21:26:35.171Z,26.70
2019-03-31T21:29:06.342Z,25.88
2019-03-31T21:31:42.901Z,27.90
2019-03-31T21:34:14.520Z,27.22
2019-03-31T21:36:47.052Z,26.87
2019-03-31T21:39:18.073Z,28.67
2019-03-31T21:41:52.241Z,28.53
2019-03-31T21:44:27.777Z,26.85
2019-03-31T21:46:58.821Z,29.40
2019-03-31T21:49:32.240Z,28.85
2019-03-31T21:52:06.566Z,29.70
2019-03-31T21:54:37.525Z,29.50
2019-03-31T21:57:08.655Z,29.65
2019-03-31T21:59:44.817Z,28.30
2019-03-31T22:02:17.364Z,29.95
2019-03-31T22:04:51.420Z,29.87
2019-03-31T22:07:22.703Z,29.35
2019-03-31T22:09:55.317Z,29.05
2019-03-31T22:12:26.280Z,28.73
2019-03-31T22:14:57.296Z,29.18
2019-03-31T22:17:28.275Z,28.05
2019-03-31T22:19:59.277Z,28.87
2019-03-31T22:22:30.257Z,29.25
2019-03-31T22:25:01.229Z,29.55
2019-03-31T22:27:36.013Z,27.27
2019-03-31T22:30:10.531Z,29.52
2019-03-31T22:32:42.422Z,29.20
2019-03-31T22:35:13.678Z,27.77
2019-03-31T22:37:46.264Z,28.75
2019-03-31T22:40:17.410Z,28.67
2019-03-31T22:42:48.467Z,28.75
2019-03-31T22:45:21.159Z,28.67
2019-03-31T22:47:52.160Z,29.05
2019-03-31T22:50:23.140Z,28.52
2019-03-31T22:52:54.828Z,29.67
2019-03-31T22:55:25.841Z,27.90
2019-03-31T22:57:56.751Z,29.10
2019-03-31T23:00:27.896Z,28.87
2019-03-31T23:02:58.808Z,30.65
2019-03-31T23:05:29.787Z,30.52
2019-03-31T23:08:00.947Z,30.00
2019-03-31T23:10:31.920Z,31.80
2019-03-31T23:13:02.830Z,29.35
2019-03-31T23:15:33.932Z,29.70
2019-03-31T23:18:04.887Z,29.40
2019-03-31T23:20:35.900Z,30.60
2019-03-31T23:23:06.844Z,29.72
2019-03-31T23:25:37.797Z,28.73
2019-03-31T23:28:08.810Z,27.98
2019-03-31T23:30:39.756Z,29.70
2019-03-31T23:33:11.557Z,28.83
2019-03-31T23:35:42.555Z,28.52
2019-03-31T23:38:13.842Z,27.90
2019-03-31T23:40:44.819Z,28.20
2019-03-31T23:43:15.743Z,29.07
2019-03-31T23:45:46.693Z,28.47
2019-03-31T23:48:17.624Z,27.67
2019-03-31T23:50:48.663Z,29.30
2019-03-31T23:53:19.662Z,27.87
2019-03-31T23:55:50.628Z,27.40
2019-03-31T23:58:21.545Z,28.47
